Time;durP1;ratioP1;P1;durP2;ratioP2;P2;SDS_P1;SDS_P2;PMS_P1;PMS_P2;Temp;Humidity;BMP_temperature;BMP_pressure;BME280_temperature;BME280_humidity;BME280_pressure;Samples;Min_cycle;Max_cycle;Signal;HPM_P1;HPM_P2
2024/04/07 00:02:10;;;;;;;4.00;2.00;;;;;;;15.75;77.48;101052.78;5073854;28;20043;-78
2024/04/07 00:05:14;;;;;;;4.78;2.22;;;;;;;15.84;76.45;101050.03;5061190;28;20043;-79
2024/04/07 00:08:19;;;;;;;5.57;2.03;;;;;;;15.63;77.32;101042.16;5073730;28;20052;-78
2024/04/07 00:11:24;;;;;;;7.93;2.22;;;;;;;15.66;77.48;101035.59;5073799;28;20055;-79
2024/04/07 00:14:29;;;;;;;4.05;2.10;;;;;;;15.69;77.01;101035.28;5073704;28;20051;-79
2024/04/07 00:17:34;;;;;;;5.25;2.00;;;;;;;15.65;77.30;101041.16;5061309;28;20392;-79
2024/04/07 00:20:39;;;;;;;6.43;1.77;;;;;;;15.38;77.99;101040.09;5072734;28;20411;-79
2024/04/07 00:23:44;;;;;;;5.65;1.92;;;;;;;15.18;78.44;101038.47;5073438;28;20052;-78
2024/04/07 00:26:50;;;;;;;3.80;1.80;;;;;;;15.06;78.83;101036.91;5073441;28;20051;-79
2024/04/07 00:29:54;;;;;;;5.80;2.10;;;;;;;15.17;78.43;101033.19;5073147;28;20056;-80
2024/04/07 00:32:59;;;;;;;4.50;2.10;;;;;;;15.25;78.09;101033.31;5061167;28;20499;-79
2024/04/07 00:36:05;;;;;;;10.25;5.50;;;;;;;15.35;77.46;101031.44;5073085;28;20039;-78
2024/04/07 00:39:12;;;;;;;6.45;3.35;;;;;;;14.99;77.98;101028.56;5073316;28;20048;-78
2024/04/07 00:42:17;;;;;;;12.68;4.43;;;;;;;14.72;78.33;101024.91;5073400;28;20064;-78
2024/04/07 00:45:23;;;;;;;8.10;3.72;;;;;;;14.78;77.95;101022.50;5073298;28;20490;-78
2024/04/07 00:48:27;;;;;;;4.82;2.15;;;;;;;14.93;77.45;101029.16;5060858;28;20044;-76
2024/04/07 00:51:33;;;;;;;6.25;2.30;;;;;;;14.74;77.34;101025.66;5072356;28;20043;-76
2024/04/07 00:54:41;;;;;;;4.28;1.85;;;;;;;14.70;77.17;101035.88;5072946;28;20047;-76
2024/04/07 00:57:47;;;;;;;7.88;3.72;;;;;;;14.64;77.15;101028.34;5072699;28;20051;-77
2024/04/07 01:00:51;;;;;;;5.18;1.85;;;;;;;14.61;77.18;101022.38;5072808;28;20498;-77
2024/04/07 01:03:56;;;;;;;8.02;2.00;;;;;;;14.58;76.86;101022.66;5073776;28;20075;-78
2024/04/07 01:07:01;;;;;;;4.40;1.67;;;;;;;14.45;76.98;101028.34;5076961;28;20487;-76
2024/04/07 01:10:07;;;;;;;8.60;2.10;;;;;;;14.44;76.75;101029.38;5077049;28;20055;-76
2024/04/07 01:13:12;;;;;;;5.60;2.10;;;;;;;14.53;76.80;101024.94;5076787;28;20052;-76
2024/04/07 01:16:16;;;;;;;3.53;1.73;;;;;;;14.53;76.11;101024.94;5076929;28;20056;-76
2024/04/07 01:19:20;;;;;;;4.40;1.70;;;;;;;14.50;76.45;101017.97;5064550;28;20051;-76
2024/04/07 01:22:26;;;;;;;2.67;1.58;;;;;;;14.41;76.21;101008.03;5076795;28;20106;-75
2024/04/07 01:25:32;;;;;;;3.85;1.70;;;;;;;14.44;75.70;100999.66;5064353;28;20052;-76
2024/04/07 01:28:36;;;;;;;3.90;1.70;;;;;;;14.45;75.47;101001.34;5064466;28;20111;-77
2024/04/07 01:31:41;;;;;;;6.15;1.77;;;;;;;14.58;75.24;101001.91;5076835;28;20051;-77
2024/04/07 01:34:45;;;;;;;3.63;1.65;;;;;;;14.69;74.68;101003.59;5076667;28;20059;-80
2024/04/07 01:37:50;;;;;;;3.97;1.70;;;;;;;14.69;74.56;101004.44;5076573;28;20067;-78
2024/04/07 01:40:54;;;;;;;8.68;2.22;;;;;;;14.52;74.77;100997.06;5076378;28;20051;-79
2024/04/07 01:43:58;;;;;;;3.53;1.65;;;;;;;14.36;74.79;100998.66;5076432;28;20059;-77
2024/04/07 01:47:05;;;;;;;6.80;1.60;;;;;;;14.31;75.17;100991.00;5076499;28;20498;-75
2024/04/07 01:50:10;;;;;;;5.20;1.80;;;;;;;14.42;75.13;100985.41;5076340;28;20055;-75
2024/04/07 01:53:14;;;;;;;4.35;2.00;;;;;;;14.58;74.64;100991.09;5075214;28;20055;-76
2024/04/07 01:56:18;;;;;;;6.82;2.00;;;;;;;14.76;73.53;100983.94;5076185;28;20047;-80
2024/04/07 01:59:23;;;;;;;6.20;2.45;;;;;;;14.40;75.01;100987.41;5063855;28;20044;-79
2024/04/07 02:02:27;;;;;;;7.00;1.88;;;;;;;14.32;75.12;100984.56;5063993;28;20072;-79
2024/04/07 02:05:31;;;;;;;6.80;2.30;;;;;;;14.35;75.33;100978.91;5076065;28;20089;-79
2024/04/07 02:08:36;;;;;;;3.00;1.17;;;;;;;14.48;74.75;100979.47;5076024;28;20050;-77
2024/04/07 02:11:41;;;;;;;6.30;1.50;;;;;;;14.39;74.48;100980.34;5075957;28;20063;-80
2024/04/07 02:14:45;;;;;;;7.50;1.90;;;;;;;14.41;74.01;100983.72;5075053;28;20150;-80
2024/04/07 02:17:50;;;;;;;4.57;1.65;;;;;;;14.46;73.53;100976.06;5075890;28;20379;-80
2024/04/07 02:20:56;;;;;;;3.25;1.42;;;;;;;14.29;73.93;100971.34;5075792;28;20388;-80
2024/04/07 02:24:00;;;;;;;4.80;1.63;;;;;;;14.36;74.13;100977.91;5075681;28;20048;-79
2024/04/07 02:27:04;;;;;;;3.60;1.75;;;;;;;14.24;74.47;100968.22;5075658;28;20040;-79
2024/04/07 02:30:21;;;;;;;3.28;1.50;;;;;;;14.23;74.35;100963.81;5075219;28;20514;-79
2024/04/07 02:33:26;;;;;;;4.82;1.60;;;;;;;14.53;73.57;100962.81;5075702;28;20051;-79
2024/04/07 02:36:31;;;;;;;6.05;1.70;;;;;;;14.37;73.85;100966.09;5075309;28;20048;-80
2024/04/07 02:39:35;;;;;;;3.78;1.50;;;;;;;14.44;73.67;100959.16;5063223;28;20044;-79
2024/04/07 02:42:40;;;;;;;2.28;1.20;;;;;;;14.38;74.12;100956.16;5075032;28;20047;-80
2024/04/07 02:49:08;;;;;;;3.50;1.50;;;;;;;14.75;72.57;100971.44;5075289;28;20069;-78
2024/04/07 02:52:12;;;;;;;3.90;1.33;;;;;;;14.82;72.33;100972.56;5075334;28;20274;-79
2024/04/07 02:55:17;;;;;;;5.60;2.08;;;;;;;14.79;72.69;100980.09;5075068;28;20059;-76
2024/04/07 02:58:21;;;;;;;3.65;1.60;;;;;;;14.76;72.95;100970.41;5074427;28;20521;-76
2024/04/07 03:01:26;;;;;;;4.15;1.67;;;;;;;14.76;72.88;100967.72;5074660;28;20505;-76
2024/04/07 03:04:31;;;;;;;6.13;1.60;;;;;;;14.77;73.44;100966.72;5074712;28;20048;-76
2024/04/07 03:07:36;;;;;;;4.05;1.45;;;;;;;14.75;74.12;100967.88;5074663;28;20051;-78
2024/04/07 03:10:41;;;;;;;4.97;1.70;;;;;;;14.73;75.00;100959.94;5074720;28;20048;-78
2024/04/07 03:13:45;;;;;;;4.00;1.52;;;;;;;14.64;75.57;100966.19;5062234;28;20498;-79
2024/04/07 03:16:50;;;;;;;3.60;1.55;;;;;;;14.64;75.98;100963.47;5074407;28;20047;-77
2024/04/07 03:19:54;;;;;;;2.92;1.40;;;;;;;14.69;76.54;100960.38;5074597;28;20047;-80
2024/04/07 03:22:59;;;;;;;3.83;1.90;;;;;;;14.72;76.71;100968.16;5074470;28;20051;-80
2024/04/07 03:26:03;;;;;;;4.55;2.00;;;;;;;14.69;77.19;100974.72;5073823;28;20506;-79
2024/04/07 03:29:08;;;;;;;4.47;1.95;;;;;;;14.65;77.52;100970.59;5074507;28;20051;-80
2024/04/07 03:32:13;;;;;;;5.40;1.75;;;;;;;14.52;77.72;100970.06;5074363;28;20447;-79
2024/04/07 03:35:17;;;;;;;5.00;1.45;;;;;;;14.35;77.99;100968.09;5074304;28;20495;-79
2024/04/07 03:38:21;;;;;;;5.45;1.92;;;;;;;14.35;78.55;100962.69;5061975;28;20048;-81
2024/04/07 03:41:25;;;;;;;3.72;1.50;;;;;;;14.40;78.05;100971.22;5073839;28;20119;-79
2024/04/07 03:44:30;;;;;;;4.38;2.10;;;;;;;14.38;78.50;100966.94;5074082;28;20059;-80
2024/04/07 03:47:37;;;;;;;7.43;1.85;;;;;;;14.40;77.93;100962.25;5074191;28;20388;-76
2024/04/07 03:50:41;;;;;;;3.08;1.60;;;;;;;14.32;78.15;100957.56;5073771;28;20048;-76
2024/04/07 03:53:46;;;;;;;4.88;1.80;;;;;;;14.27;77.42;100970.63;5061639;28;20086;-77
2024/04/07 03:56:50;;;;;;;4.72;1.42;;;;;;;14.28;77.48;100962.38;5061269;28;20400;-77
2024/04/07 03:59:55;;;;;;;3.58;1.75;;;;;;;14.31;77.03;100958.59;5074009;28;20043;-76
2024/04/07 04:03:00;;;;;;;5.50;1.40;;;;;;;14.19;77.06;100970.50;5073905;28;20051;-76
2024/04/07 04:06:06;;;;;;;4.72;1.60;;;;;;;14.29;76.68;100968.66;5073830;28;20155;-76
2024/04/07 04:09:11;;;;;;;2.30;1.10;;;;;;;14.14;77.15;100976.34;5073470;28;20051;-76
2024/04/07 04:12:16;;;;;;;3.60;1.92;;;;;;;14.11;76.97;100967.66;5073737;28;20414;-77
2024/04/07 04:15:20;;;;;;;5.60;1.40;;;;;;;14.13;76.87;100973.75;5073796;28;20388;-76
2024/04/07 04:18:24;;;;;;;6.63;1.52;;;;;;;14.06;76.28;100970.78;5073690;28;20056;-76
2024/04/07 04:21:30;;;;;;;4.22;1.40;;;;;;;14.07;75.83;100971.66;5073624;28;20494;-76
2024/04/07 04:24:35;;;;;;;4.05;1.40;;;;;;;14.05;74.24;100962.81;5073570;28;20060;-77
2024/04/07 04:27:40;;;;;;;3.42;1.20;;;;;;;14.02;72.88;100955.84;5073728;28;20052;-77
2024/04/07 04:30:56;;;;;;;4.70;1.50;;;;;;;14.03;72.57;100960.25;5073597;28;20051;-77
2024/04/07 04:34:02;;;;;;;3.95;1.20;;;;;;;14.07;72.90;100966.25;5061171;28;20058;-75
2024/04/07 04:37:08;;;;;;;5.55;1.48;;;;;;;14.02;72.63;100971.22;5073492;28;20048;-78
2024/04/07 04:40:13;;;;;;;3.00;1.50;;;;;;;14.09;72.86;100967.81;5073143;28;20063;-75
2024/04/07 04:43:19;;;;;;;5.38;1.58;;;;;;;14.14;73.02;100970.06;5073337;28;20490;-77
2024/04/07 04:46:26;;;;;;;7.68;1.67;;;;;;;14.08;73.09;100970.63;5038093;28;20047;-76
2024/04/07 04:49:30;;;;;;;4.25;1.48;;;;;;;13.95;73.44;100965.50;5073447;28;20051;-76
2024/04/07 04:52:35;;;;;;;4.00;1.20;;;;;;;13.91;74.04;100974.88;5073407;28;20418;-75
2024/04/07 04:55:40;;;;;;;6.63;1.80;;;;;;;13.89;73.94;100982.28;5073049;28;20052;-74
2024/04/07 04:58:44;;;;;;;3.42;1.58;;;;;;;13.59;74.62;100977.81;5072759;28;20419;-75
2024/04/07 05:01:49;;;;;;;4.55;1.60;;;;;;;13.58;75.01;100986.03;5073280;28;20064;-75
2024/04/07 05:04:53;;;;;;;4.20;1.50;;;;;;;13.56;74.60;100975.41;5073313;28;20383;-77
2024/04/07 05:07:58;;;;;;;4.18;1.80;;;;;;;13.52;74.88;100982.06;5073295;28;20482;-77
2024/04/07 05:11:04;;;;;;;6.85;2.15;;;;;;;13.86;73.84;100982.56;5073159;28;20396;-77
2024/04/07 05:14:08;;;;;;;8.02;2.42;;;;;;;14.03;73.06;100981.00;5073200;28;20047;-79
2024/04/07 05:17:13;;;;;;;3.50;1.80;;;;;;;14.14;72.89;100983.56;5049400;28;20494;-76
2024/04/07 05:20:19;;;;;;;8.82;1.83;;;;;;;14.48;71.63;100982.16;5072994;28;20052;-77
2024/04/07 05:23:24;;;;;;;7.00;2.28;;;;;;;14.70;71.80;100987.25;5072977;28;20067;-75
2024/04/07 05:26:29;;;;;;;7.25;1.77;;;;;;;14.77;71.53;100980.25;5072603;28;20052;-75
2024/04/07 05:29:33;;;;;;;3.72;1.90;;;;;;;14.76;71.88;100983.09;5072833;28;20083;-78
2024/04/07 05:32:38;;;;;;;4.00;1.88;;;;;;;14.82;72.46;100987.91;5072428;28;20052;-77
2024/04/07 05:35:42;;;;;;;3.05;1.30;;;;;;;14.94;71.79;100997.53;5072850;28;20115;-78
2024/04/07 05:38:47;;;;;;;4.05;1.70;;;;;;;14.98;71.35;101002.53;5072832;28;20063;-79
2024/04/07 05:41:52;;;;;;;5.32;1.67;;;;;;;14.79;70.75;100990.91;5072777;28;20052;-80
2024/04/07 05:44:57;;;;;;;3.80;1.50;;;;;;;14.78;69.91;101003.59;5060483;28;20060;-79
2024/04/07 05:48:01;;;;;;;6.20;1.50;;;;;;;14.63;70.95;101005.03;5072875;28;20060;-75
2024/04/07 05:51:13;;;;;;;3.63;1.45;;;;;;;14.55;71.38;101007.59;5075288;28;20085;-75
2024/04/07 05:54:20;;;;;;;3.58;1.50;;;;;;;14.37;72.75;101008.47;5075528;28;20047;-74
2024/04/07 05:57:24;;;;;;;5.80;1.60;;;;;;;14.65;71.68;101002.19;5075700;28;20067;-75
2024/04/07 06:00:33;;;;;;;4.55;1.45;;;;;;;14.62;71.29;101016.81;5076017;28;20044;-76
2024/04/07 06:03:38;;;;;;;5.03;1.50;;;;;;;14.44;72.11;101002.38;5081062;28;20047;-75
2024/04/07 06:06:43;;;;;;;5.10;2.58;;;;;;;14.67;70.86;101008.28;5096494;28;20047;-76
2024/04/07 06:09:48;;;;;;;4.03;1.60;;;;;;;15.01;70.21;101016.75;5083948;28;20513;-75
2024/04/07 06:12:53;;;;;;;3.83;1.35;;;;;;;15.10;69.11;101014.03;5096342;28;20047;-72
2024/04/07 06:15:58;;;;;;;3.38;1.40;;;;;;;15.31;68.92;101021.91;5096315;28;20394;-75
2024/04/07 06:19:03;;;;;;;7.60;2.08;;;;;;;15.56;67.79;101010.41;5095893;28;20062;-73
2024/04/07 06:22:07;;;;;;;3.45;1.50;;;;;;;15.73;67.56;101016.88;5083592;28;20059;-73
2024/04/07 06:25:12;;;;;;;4.60;1.45;;;;;;;15.85;67.11;101021.94;5095824;28;20047;-74
2024/04/07 06:28:17;;;;;;;4.57;1.90;;;;;;;15.84;67.36;101022.09;5095992;28;20059;-73
2024/04/07 06:31:35;;;;;;;4.80;1.75;;;;;;;16.16;66.10;101017.03;5083549;28;20047;-73
2024/04/07 06:34:39;;;;;;;4.00;1.40;;;;;;;16.07;66.67;101018.78;5095693;28;20052;-73
2024/04/07 06:37:44;;;;;;;3.35;1.55;;;;;;;15.92;68.16;101014.91;5095715;28;20058;-73
2024/04/07 06:40:48;;;;;;;4.28;1.98;;;;;;;16.31;66.30;101026.31;5096037;28;20109;-72
2024/04/07 06:43:53;;;;;;;5.40;1.58;;;;;;;16.60;65.86;101023.38;5095619;28;20055;-71
2024/04/07 06:46:58;;;;;;;6.72;2.47;;;;;;;16.66;66.05;101022.75;5095727;28;20055;-74
2024/04/07 06:50:04;;;;;;;4.95;2.28;;;;;;;17.12;64.11;101019.69;5095636;28;20055;-74
2024/04/07 06:53:08;;;;;;;7.97;2.15;;;;;;;16.99;64.54;101027.38;5082766;28;20402;-73
2024/04/07 06:56:14;;;;;;;5.93;2.47;;;;;;;17.16;63.45;101029.19;5095511;28;20462;-72
2024/04/07 06:59:19;;;;;;;10.10;2.90;;;;;;;17.39;63.10;101027.63;5054716;28;20056;-73
2024/04/07 07:02:23;;;;;;;4.65;1.98;;;;;;;17.56;63.16;101028.59;5054829;28;20052;-73
2024/04/07 07:05:28;;;;;;;6.03;1.83;;;;;;;17.89;62.34;101026.84;5054819;28;20055;-72
2024/04/07 07:08:33;;;;;;;4.65;1.88;;;;;;;17.97;61.76;101032.31;5054808;28;20044;-77
2024/04/07 07:11:37;;;;;;;4.65;1.77;;;;;;;17.85;61.60;101034.47;5054956;28;20163;-75
2024/04/07 07:14:42;;;;;;;4.88;1.77;;;;;;;18.11;61.70;101034.38;5044857;28;20068;-80
2024/04/07 07:17:47;;;;;;;3.80;1.95;;;;;;;19.02;59.06;101030.53;5034577;28;20057;-85
2024/04/07 07:20:52;;;;;;;6.07;2.08;;;;;;;19.46;57.89;101033.66;5046310;28;20040;-78
2024/04/07 07:23:57;;;;;;;3.17;1.52;;;;;;;20.01;55.13;101039.91;5043985;28;20044;-79
2024/04/07 07:27:01;;;;;;;2.95;1.42;;;;;;;19.76;55.65;101029.28;5044341;28;20041;-81
2024/04/07 07:30:07;;;;;;;6.05;1.38;;;;;;;21.00;52.62;101033.53;5044087;28;20036;-78
2024/04/07 07:33:14;;;;;;;4.32;1.30;;;;;;;21.95;49.05;101028.03;5043101;28;20044;-79
2024/04/07 07:36:18;;;;;;;2.78;1.33;;;;;;;21.33;50.02;101035.78;5046490;28;20052;-78
2024/04/07 07:39:23;;;;;;;3.65;1.45;;;;;;;21.57;50.69;101033.81;5044530;28;20119;-72
2024/04/07 07:42:28;;;;;;;3.45;1.33;;;;;;;22.36;47.62;101035.66;5033088;28;20061;-79
2024/04/07 07:45:32;;;;;;;4.65;1.63;;;;;;;22.70;46.92;101045.91;5034098;28;20072;-75
2024/04/07 07:48:39;;;;;;;6.25;1.30;;;;;;;23.15;46.35;101034.50;5034282;28;20048;-74
2024/04/07 07:51:44;;;;;;;4.03;1.73;;;;;;;23.36;45.02;101039.09;5033730;28;20060;-75
2024/04/07 07:54:49;;;;;;;4.10;1.42;;;;;;;23.13;44.87;101033.88;5034186;28;20057;-76
2024/04/07 07:57:54;;;;;;;6.55;2.30;;;;;;;23.73;44.33;101031.31;5056199;28;20055;-76
2024/04/07 08:01:00;;;;;;;6.78;3.10;;;;;;;24.11;42.58;101030.84;5073616;28;20367;-74
2024/04/07 08:04:05;;;;;;;3.42;1.48;;;;;;;24.01;42.63;101028.47;5061324;28;20047;-75
2024/04/07 08:07:09;;;;;;;3.30;1.63;;;;;;;25.47;39.76;101025.69;5061149;28;20055;-75
2024/04/07 08:10:14;;;;;;;4.57;1.63;;;;;;;27.14;36.43;101022.44;5073855;28;20055;-76
2024/04/07 08:13:18;;;;;;;4.22;1.40;;;;;;;28.34;33.56;101028.03;5073278;28;20051;-77
2024/04/07 08:16:23;;;;;;;3.67;1.67;;;;;;;28.00;33.53;101017.69;5073585;28;20155;-76
2024/04/07 08:19:27;;;;;;;4.80;1.60;;;;;;;26.40;35.26;101022.34;5073621;28;20060;-77
2024/04/07 08:22:32;;;;;;;3.65;1.27;;;;;;;26.10;36.36;101016.56;5073806;28;20052;-75
2024/04/07 08:25:36;;;;;;;3.17;1.10;;;;;;;26.39;35.86;101017.94;5073728;28;20158;-77
2024/04/07 08:28:41;;;;;;;5.50;1.48;;;;;;;26.91;35.09;101020.28;5073439;28;20052;-76
2024/04/07 08:31:46;;;;;;;5.80;1.73;;;;;;;28.73;32.43;101012.84;5073556;28;20047;-77
2024/04/07 08:34:51;;;;;;;6.03;1.92;;;;;;;30.70;30.81;101023.56;5073496;28;20071;-76
2024/04/07 08:37:56;;;;;;;6.88;2.58;;;;;;;32.06;29.53;101017.34;5073498;28;20056;-76
2024/04/07 08:41:00;;;;;;;5.82;1.70;;;;;;;33.37;27.79;101013.06;5061389;28;20055;-76
2024/04/07 08:44:07;;;;;;;6.05;2.10;;;;;;;33.81;26.45;101008.03;5073456;28;20048;-75
2024/04/07 08:47:13;;;;;;;5.25;1.92;;;;;;;34.67;25.07;101016.66;5061456;28;20055;-76
2024/04/07 08:50:18;;;;;;;6.30;1.55;;;;;;;35.00;24.04;101013.34;5073439;28;20052;-76
2024/04/07 08:53:23;;;;;;;5.40;1.33;;;;;;;35.89;24.15;101007.88;5073189;28;20395;-77
2024/04/07 08:56:28;;;;;;;3.33;1.30;;;;;;;36.37;23.88;101014.63;5060720;28;20055;-76
2024/04/07 08:59:33;;;;;;;3.28;1.20;;;;;;;36.04;23.81;101017.34;5073287;28;20495;-76
2024/04/07 09:02:39;;;;;;;4.00;1.50;;;;;;;34.99;24.81;101020.03;5073332;28;20048;-75
2024/04/07 09:05:45;;;;;;;3.78;1.65;;;;;;;34.31;25.05;101007.38;5073157;28;20067;-77
2024/04/07 09:08:50;;;;;;;6.22;2.58;;;;;;;32.77;26.32;100998.66;5072876;28;20052;-76
2024/04/07 09:11:54;;;;;;;3.75;1.38;;;;;;;31.40;28.06;100998.94;5072939;28;20044;-77
2024/04/07 09:14:59;;;;;;;5.78;1.40;;;;;;;30.44;28.81;101006.75;5072814;28;20051;-77
2024/04/07 09:18:05;;;;;;;6.22;1.60;;;;;;;30.08;30.38;100997.72;5072888;28;20052;-77
2024/04/07 09:21:15;;;;;;;6.78;1.58;;;;;;;29.41;30.83;100998.44;5072714;28;20048;-76
2024/04/07 09:24:19;;;;;;;4.70;1.27;;;;;;;28.89;31.20;100992.78;5072612;28;20512;-77
2024/04/07 09:27:25;;;;;;;3.55;1.80;;;;;;;28.41;32.02;100992.06;5076645;28;20387;-76
2024/04/07 09:30:30;;;;;;;5.60;1.52;;;;;;;28.27;31.38;100982.25;5076581;28;20055;-77
2024/04/07 09:33:35;;;;;;;2.78;1.30;;;;;;;28.10;32.86;100984.00;5076323;28;20495;-75
2024/04/07 09:36:40;;;;;;;3.55;1.27;;;;;;;28.02;31.96;100979.66;5076319;28;20048;-76
2024/04/07 09:39:45;;;;;;;4.15;1.05;;;;;;;27.85;32.08;100977.75;5076197;28;20139;-76
2024/04/07 09:42:57;;;;;;;4.18;1.17;;;;;;;27.47;32.38;100981.59;5075925;28;20051;-74
2024/04/07 09:46:05;;;;;;;2.80;1.10;;;;;;;27.45;32.88;100980.16;5063824;28;20486;-77
2024/04/07 09:49:10;;;;;;;2.75;1.00;;;;;;;27.20;33.88;100979.34;5076041;28;20274;-77
2024/04/07 09:52:21;;;;;;;2.75;1.08;;;;;;;27.25;33.10;100976.72;5076194;28;20051;-77
2024/04/07 09:55:35;;;;;;;3.47;1.10;;;;;;;27.23;33.06;100979.72;5076091;28;20055;-77
2024/04/07 09:58:40;;;;;;;3.95;1.42;;;;;;;27.08;33.98;100977.31;5075259;28;20048;-77
2024/04/07 10:01:45;;;;;;;8.82;1.67;;;;;;;27.13;33.97;100964.78;5075688;28;20051;-75
2024/04/07 10:04:51;;;;;;;5.38;1.40;;;;;;;26.91;33.14;100967.13;5075334;28;20055;-76
2024/04/07 10:07:57;;;;;;;7.97;1.77;;;;;;;26.75;33.89;100968.50;5063486;28;20064;-76
2024/04/07 10:11:01;;;;;;;5.00;1.52;;;;;;;26.83;33.79;100959.97;5075792;28;20115;-75
2024/04/07 10:14:17;;;;;;;5.63;2.72;;;;;;;26.76;33.68;100955.59;5075625;28;20047;-74
2024/04/07 10:17:23;;;;;;;5.47;2.90;;;;;;;26.71;34.55;100949.88;5075596;28;20063;-76
2024/04/07 10:20:27;;;;;;;3.83;1.38;;;;;;;26.70;34.45;100940.78;5075448;28;20391;-75
2024/04/07 10:23:37;;;;;;;5.13;1.10;;;;;;;26.67;34.79;100955.00;5075689;28;20395;-74
2024/04/07 10:26:55;;;;;;;4.93;1.27;;;;;;;26.56;34.92;100950.22;5075201;28;20059;-76
2024/04/07 10:30:00;;;;;;;3.78;1.48;;;;;;;26.30;36.68;100945.75;5075292;28;20048;-75
2024/04/07 10:33:20;;;;;;;2.55;1.00;;;;;;;26.18;36.78;100942.03;5075040;28;20064;-75
2024/04/07 10:36:25;;;;;;;6.30;1.17;;;;;;;25.79;37.62;100939.47;5074587;28;20051;-75
2024/04/07 10:39:30;;;;;;;2.97;1.00;;;;;;;25.80;38.09;100938.44;5074946;28;20093;-75
2024/04/07 10:42:36;;;;;;;2.90;1.20;;;;;;;25.66;38.44;100943.13;5062536;28;20478;-75
2024/04/07 10:45:41;;;;;;;4.50;1.33;;;;;;;25.83;37.67;100938.81;5074939;28;20076;-75
2024/04/07 10:48:47;;;;;;;5.05;1.00;;;;;;;25.78;37.15;100924.03;5075159;28;20052;-76
2024/04/07 10:51:52;;;;;;;1.90;0.85;;;;;;;25.75;38.64;100930.00;5074870;28;20122;-77
2024/04/07 10:54:59;;;;;;;2.92;1.08;;;;;;;25.79;38.73;100923.84;5075383;28;20059;-75
2024/04/07 10:58:05;;;;;;;3.35;1.10;;;;;;;25.78;37.90;100924.03;5074345;28;20063;-75
2024/04/07 11:01:09;;;;;;;3.13;1.00;;;;;;;25.60;38.59;100912.94;5075004;28;20047;-75
2024/04/07 11:04:14;;;;;;;3.95;1.15;;;;;;;25.59;37.88;100917.59;5074794;28;20075;-75
2024/04/07 11:07:19;;;;;;;5.65;1.20;;;;;;;25.53;37.70;100918.44;5074276;28;20047;-74
2024/04/07 11:10:32;;;;;;;4.35;1.13;;;;;;;25.50;38.62;100918.91;5074671;28;20391;-75
2024/04/07 11:13:37;;;;;;;2.45;0.90;;;;;;;25.42;38.76;100918.25;5074364;28;20048;-74
2024/04/07 11:16:41;;;;;;;4.15;1.05;;;;;;;25.30;39.29;100903.50;5074383;28;20044;-76
2024/04/07 11:19:51;;;;;;;3.70;1.17;;;;;;;25.27;39.33;100902.03;5074311;28;20092;-75
2024/04/07 11:22:56;;;;;;;4.97;0.85;;;;;;;25.07;39.49;100891.09;5074120;28;20052;-75
2024/04/07 11:26:01;;;;;;;4.18;1.02;;;;;;;25.03;40.25;100891.75;5074192;28;20055;-74
2024/04/07 11:29:06;;;;;;;2.47;0.85;;;;;;;25.07;40.14;100891.09;5073958;28;20048;-76
2024/04/07 11:32:14;;;;;;;2.67;0.90;;;;;;;25.04;41.67;100882.44;5074035;28;20052;-74
2024/04/07 11:35:19;;;;;;;3.45;1.08;;;;;;;25.07;40.85;100885.63;5074050;28;20052;-75
2024/04/07 11:38:24;;;;;;;4.90;1.67;;;;;;;25.08;39.16;100890.03;5073974;28;20055;-75
2024/04/07 11:41:29;;;;;;;4.10;1.20;;;;;;;25.00;40.01;100883.94;5074041;28;20051;-75
2024/04/07 11:44:34;;;;;;;6.93;1.48;;;;;;;25.10;39.29;100884.34;5073593;28;20044;-77
2024/04/07 11:47:39;;;;;;;4.85;1.17;;;;;;;25.12;39.86;100883.06;5073221;28;20063;-77
2024/04/07 11:50:43;;;;;;;3.25;1.10;;;;;;;25.17;40.35;100883.25;5073855;28;20083;-77
2024/04/07 11:53:48;;;;;;;3.47;1.00;;;;;;;25.23;39.95;100876.88;5073419;28;20208;-74
2024/04/07 11:56:53;;;;;;;4.18;1.63;;;;;;;25.21;40.81;100872.66;5073348;28;20063;-75
2024/04/07 11:59:57;;;;;;;3.03;1.10;;;;;;;25.32;40.39;100871.16;5061331;28;20048;-76
2024/04/07 12:03:03;;;;;;;3.05;0.98;;;;;;;25.39;40.24;100852.72;5073414;28;20048;-75
2024/04/07 12:06:08;;;;;;;4.18;1.20;;;;;;;25.47;40.70;100849.75;5073204;28;20071;-75
2024/04/07 12:09:13;;;;;;;4.10;1.20;;;;;;;25.44;40.56;100837.25;5073537;28;20055;-75
2024/04/07 12:12:18;;;;;;;4.13;1.25;;;;;;;25.38;40.16;100837.31;5061116;28;20368;-74
2024/04/07 12:15:23;;;;;;;4.22;1.45;;;;;;;25.24;40.63;100836.50;5049801;28;20052;-75
2024/04/07 12:18:29;;;;;;;3.90;1.42;;;;;;;25.21;40.59;100828.69;5061187;28;20047;-75
2024/04/07 12:21:34;;;;;;;3.50;1.15;;;;;;;25.26;40.68;100830.81;5073372;28;20395;-76
2024/04/07 12:24:39;;;;;;;4.82;1.20;;;;;;;25.33;40.44;100831.63;5073271;28;20486;-75
2024/04/07 12:27:44;;;;;;;2.97;1.20;;;;;;;25.21;40.81;100813.06;5060887;28;20087;-75
2024/04/07 12:30:52;;;;;;;3.58;1.30;;;;;;;25.39;40.21;100806.84;5073474;28;20047;-77
2024/04/07 12:33:56;;;;;;;3.67;1.45;;;;;;;25.34;40.26;100812.16;5074019;28;20048;-75
2024/04/07 12:37:02;;;;;;;2.47;1.08;;;;;;;25.39;40.54;100806.84;5073979;28;20044;-75
2024/04/07 12:40:08;;;;;;;4.60;1.15;;;;;;;25.28;40.25;100801.19;5074028;28;20059;-76
2024/04/07 12:43:14;;;;;;;4.75;1.55;;;;;;;25.31;40.61;100796.09;5073589;28;20063;-75
2024/04/07 12:46:19;;;;;;;3.95;1.17;;;;;;;25.27;40.87;100791.25;5073014;28;20086;-75
2024/04/07 12:49:24;;;;;;;4.45;1.48;;;;;;;25.30;41.38;100790.81;5072665;28;20044;-76
2024/04/07 12:52:28;;;;;;;2.70;1.20;;;;;;;25.23;41.44;100782.63;5060604;28;20395;-75
2024/04/07 12:55:33;;;;;;;5.15;1.50;;;;;;;25.24;41.79;100781.53;5072824;28;20055;-74
2024/04/07 12:58:38;;;;;;;3.67;1.48;;;;;;;25.25;41.25;100780.50;5073229;28;20051;-76
2024/04/07 13:01:43;;;;;;;10.32;3.60;;;;;;;25.11;42.12;100778.84;5077036;28;20056;-75
2024/04/07 13:04:48;;;;;;;7.03;2.72;;;;;;;25.09;41.37;100770.00;5077049;28;20418;-75
2024/04/07 13:07:52;;;;;;;4.32;2.08;;;;;;;25.20;42.61;100772.06;5076862;28;20060;-77
2024/04/07 13:10:59;;;;;;;11.13;5.55;;;;;;;25.19;42.39;100764.88;5077002;28;20056;-76
2024/04/07 13:14:04;;;;;;;17.98;10.82;;;;;;;25.23;42.21;100751.53;5076982;28;20044;-75
2024/04/07 13:17:09;;;;;;;26.60;15.15;;;;;;;25.32;42.23;100751.06;5076833;28;20044;-75
2024/04/07 13:20:14;;;;;;;12.38;5.78;;;;;;;25.34;41.52;100748.94;5076314;28;20399;-76
2024/04/07 13:23:19;;;;;;;3.00;1.30;;;;;;;25.48;41.01;100745.06;5076824;28;20052;-77
2024/04/07 13:26:23;;;;;;;4.13;1.33;;;;;;;25.57;41.30;100734.66;5076520;28;20055;-77
2024/04/07 13:29:28;;;;;;;6.85;2.60;;;;;;;25.59;41.09;100738.00;5076611;28;20055;-75
2024/04/07 13:32:33;;;;;;;3.92;1.88;;;;;;;25.52;41.71;100727.06;5076373;28;20051;-75
2024/04/07 13:35:38;;;;;;;2.95;1.35;;;;;;;25.50;42.01;100723.72;5076552;28;20364;-73
2024/04/07 13:38:43;;;;;;;4.72;1.55;;;;;;;25.57;41.48;100729.16;5076368;28;20063;-76
2024/04/07 13:41:48;;;;;;;3.72;1.10;;;;;;;25.68;40.69;100728.41;5076291;28;20521;-78
2024/04/07 13:44:52;;;;;;;3.28;1.00;;;;;;;25.66;41.99;100723.13;5076348;28;20063;-77
2024/04/07 13:47:57;;;;;;;2.67;1.15;;;;;;;25.50;44.33;100717.34;5076000;28;20044;-77
2024/04/07 13:51:04;;;;;;;4.95;1.67;;;;;;;25.49;44.32;100715.66;5076348;28;20493;-76
2024/04/07 13:54:09;;;;;;;2.95;1.00;;;;;;;25.51;45.89;100716.28;5063991;28;20059;-77
2024/04/07 13:57:17;;;;;;;3.95;1.35;;;;;;;25.47;45.88;100704.06;5075715;28;20051;-77
2024/04/07 14:00:22;;;;;;;3.90;1.20;;;;;;;25.33;45.94;100706.00;5076168;28;20379;-76
2024/04/07 14:03:27;;;;;;;7.25;1.23;;;;;;;25.37;45.31;100703.66;5075835;28;20063;-76
2024/04/07 14:06:33;;;;;;;6.13;1.65;;;;;;;25.16;45.84;100716.69;5029711;28;20093;-76
2024/04/07 14:09:38;;;;;;;6.68;1.73;;;;;;;25.06;46.07;100705.34;5063575;28;20051;-76
2024/04/07 14:12:42;;;;;;;5.00;1.13;;;;;;;25.34;46.24;100707.69;5075466;28;20056;-76
2024/04/07 14:15:47;;;;;;;6.25;1.20;;;;;;;25.35;45.70;100700.31;5075608;28;20075;-76
2024/04/07 14:18:52;;;;;;;3.55;1.58;;;;;;;25.45;45.65;100701.53;5075645;28;20052;-76
2024/04/07 14:21:57;;;;;;;4.45;1.52;;;;;;;25.42;45.79;100696.44;5075595;28;20055;-75
2024/04/07 14:25:02;;;;;;;4.68;1.17;;;;;;;25.31;46.06;100696.31;5075647;28;20063;-74